Kirkland, Texas
Current Conditions -  °F | °C
As of 12:53 PM on Friday 24 Oct 2014 (Local Time) from KCDS Reporting Station
Clear Clear  
Wind Chill: 82°   Ceiling: Unl
Heat Index: 82°   Visibility: 10mi
Dew Point: 58°   Wind: 10mph
Humidity: 44%   Direction: 240°WSW
Pressure: 30.11"   Gusts: NA
Location:  34.38°N, 100.06°W
Report Text: KCDS 241753Z AUTO 24009KT 10SM CLR 28/14 A3011 RMK AO2 SLP175 T02780144 10278 20144 58006
Loading
Personal Weather Stations






























Interactive Weather Map
Tropical Storm Tracking
New forecast layout! Learn more

10-Day Weather Forecast

Advertisements
Track Severe Weather on mobile